33TE weather

Public forecast

Using degrees Fahrenheit for public forecast. Weather courtesy of forecast.io.

Closest aviation weather report (METAR) to Sw Police Station Nr 4 Heliport

Closest report is William P Hobby Airport, 9.4 nm (17.4 km) ESE. Retrieved 2020/08/11 17:53 UTC (20 minutes ago):

KHOU 111753Z 20007KT 10SM SCT040 34/22 A2998 RMK AO2 SLP157 T03440222 10344 20272 58014

Closest aviation forecast (TAF) to Sw Police Station Nr 4 Heliport

Closest forecast is William P Hobby Airport, 9.4 nm (17.4 km) ESE. Retrieved 2020/08/11 18:22 UTC (0 seconds ago):

TAF KHOU 111720Z 1118/1218 20010KT P6SM SCT040 FM112200 16010KT P6SM FEW050 FM120500 VRB04KT P6SM FEW020 FM121500 21008KT P6SM SCT040